createdAt,value
2022-07-29T00:01:21.620Z,46.50
2022-07-29T00:03:51.381Z,47.12
2022-07-29T00:06:19.667Z,47.42
2022-07-29T00:08:48.131Z,47.23
2022-07-29T00:11:16.460Z,47.00
2022-07-29T00:13:50.546Z,47.14
2022-07-29T00:16:19.322Z,47.20
2022-07-29T00:18:47.873Z,46.71
2022-07-29T00:21:17.808Z,47.67
2022-07-29T00:23:46.021Z,47.54
2022-07-29T00:26:15.105Z,47.53
2022-07-29T00:28:43.674Z,47.86
2022-07-29T00:31:12.139Z,48.21
2022-07-29T00:33:40.329Z,47.66
2022-07-29T00:36:07.798Z,47.83
2022-07-29T00:38:37.272Z,48.12
2022-07-29T00:41:05.434Z,48.13
2022-07-29T00:43:33.652Z,48.34
2022-07-29T00:46:01.981Z,48.63
2022-07-29T00:48:30.927Z,48.51
2022-07-29T00:50:59.955Z,48.33
2022-07-29T00:53:28.742Z,48.84
2022-07-29T00:56:00.796Z,48.58
2022-07-29T00:58:29.168Z,48.66
2022-07-29T01:00:57.443Z,48.96
2022-07-29T01:03:25.859Z,49.62
2022-07-29T01:05:54.687Z,49.57
2022-07-29T01:08:23.248Z,49.96
2022-07-29T01:10:51.603Z,49.78
2022-07-29T01:13:21.743Z,49.63
2022-07-29T01:15:57.713Z,49.67
2022-07-29T01:18:34.095Z,49.69
2022-07-29T01:21:23.801Z,49.57
2022-07-29T01:24:05.997Z,49.81
2022-07-29T01:26:39.189Z,50.40
2022-07-29T01:29:16.474Z,50.97
2022-07-29T01:31:58.460Z,50.94
2022-07-29T01:34:32.559Z,50.68
2022-07-29T01:37:09.137Z,50.84
2022-07-29T01:39:38.938Z,51.41
2022-07-29T01:42:13.268Z,50.96
2022-07-29T01:44:55.427Z,50.66
2022-07-29T01:47:29.210Z,51.28
2022-07-29T01:49:58.993Z,51.36
2022-07-29T01:52:32.274Z,51.59
2022-07-29T01:55:02.861Z,51.30
2022-07-29T01:57:34.081Z,51.55
2022-07-29T02:00:06.551Z,51.53
2022-07-29T02:02:40.485Z,52.53
2022-07-29T02:05:11.527Z,52.15
2022-07-29T02:07:40.236Z,52.40
2022-07-29T02:10:09.940Z,52.02
2022-07-29T02:12:38.610Z,52.32
2022-07-29T02:15:11.935Z,52.23
2022-07-29T02:17:44.708Z,52.61
2022-07-29T02:20:13.813Z,52.84
2022-07-29T02:22:43.504Z,53.33
2022-07-29T02:25:14.223Z,53.86
2022-07-29T02:27:43.967Z,53.70
2022-07-29T02:30:14.465Z,54.05
2022-07-29T02:32:44.467Z,53.67
2022-07-29T02:35:16.756Z,54.39
2022-07-29T02:37:45.977Z,54.28
2022-07-29T02:40:16.499Z,53.82
2022-07-29T02:42:47.488Z,54.12
2022-07-29T02:45:17.278Z,54.45
2022-07-29T02:47:50.249Z,54.02
2022-07-29T02:50:21.239Z,54.09
2022-07-29T02:52:56.289Z,54.50
2022-07-29T02:55:28.765Z,54.11
2022-07-29T02:58:00.483Z,54.14
2022-07-29T03:00:31.486Z,54.24
2022-07-29T03:03:02.201Z,54.67
2022-07-29T03:05:31.617Z,55.54
2022-07-29T03:08:03.019Z,55.62
2022-07-29T03:10:31.901Z,55.97
2022-07-29T03:13:00.661Z,55.44
2022-07-29T03:15:30.849Z,55.58
2022-07-29T03:17:59.082Z,55.15
2022-07-29T03:20:27.550Z,54.78
2022-07-29T03:22:55.948Z,55.77
2022-07-29T03:25:24.152Z,55.85
2022-07-29T03:27:52.504Z,55.39
2022-07-29T03:30:22.197Z,55.12
2022-07-29T03:32:52.731Z,55.14
2022-07-29T03:35:21.620Z,55.15
2022-07-29T03:37:50.221Z,56.08
2022-07-29T03:40:21.661Z,55.91
2022-07-29T03:42:52.289Z,55.72
2022-07-29T03:45:21.220Z,56.03
2022-07-29T03:47:59.955Z,56.17
2022-07-29T03:50:29.794Z,55.84
2022-07-29T03:52:58.037Z,55.75
2022-07-29T03:55:26.944Z,55.47
2022-07-29T03:57:55.539Z,55.71
2022-07-29T04:00:24.445Z,55.67
2022-07-29T04:02:54.286Z,56.13
2022-07-29T04:05:22.473Z,56.51
2022-07-29T04:07:50.695Z,57.11
2022-07-29T04:10:29.374Z,56.99
2022-07-29T04:13:00.171Z,57.14
2022-07-29T04:15:30.922Z,56.46
2022-07-29T04:18:01.543Z,56.35
2022-07-29T04:20:30.065Z,56.53
2022-07-29T04:22:58.143Z,56.61
2022-07-29T04:25:26.525Z,55.86
2022-07-29T04:28:03.447Z,56.99
2022-07-29T04:30:36.089Z,56.22
2022-07-29T04:33:07.021Z,55.82
2022-07-29T04:35:38.647Z,54.83
2022-07-29T04:38:15.729Z,55.81
2022-07-29T04:40:45.366Z,55.40
2022-07-29T04:43:16.057Z,55.27
2022-07-29T04:45:44.183Z,55.00
2022-07-29T04:48:13.743Z,54.77
2022-07-29T04:50:42.222Z,54.23
2022-07-29T04:53:10.306Z,53.77
2022-07-29T04:55:38.867Z,53.52
2022-07-29T04:58:08.519Z,53.37
2022-07-29T05:00:36.883Z,53.81
2022-07-29T05:03:05.193Z,53.81
2022-07-29T05:05:34.964Z,53.89
2022-07-29T05:08:03.177Z,53.94
2022-07-29T05:10:31.347Z,53.82
2022-07-29T05:12:59.575Z,53.94
2022-07-29T05:15:27.915Z,54.05
2022-07-29T05:17:56.166Z,53.82
2022-07-29T05:20:29.238Z,53.12
2022-07-29T05:22:59.218Z,53.11
2022-07-29T05:25:43.032Z,53.19
2022-07-29T05:28:13.162Z,52.78
2022-07-29T05:30:41.535Z,52.76
2022-07-29T05:33:35.606Z,52.58
2022-07-29T05:36:00.889Z,52.74
2022-07-29T05:38:53.193Z,52.78
2022-07-29T05:41:21.308Z,51.79
2022-07-29T05:43:49.547Z,51.82
2022-07-29T05:46:17.831Z,51.25
2022-07-29T05:48:46.074Z,51.83
2022-07-29T05:51:14.293Z,51.36
2022-07-29T05:53:42.420Z,51.63
2022-07-29T05:56:12.145Z,51.20
2022-07-29T05:58:40.356Z,50.86
2022-07-29T06:01:15.342Z,50.63
2022-07-29T06:03:44.214Z,50.94
2022-07-29T06:06:12.364Z,51.00
2022-07-29T06:08:41.306Z,51.09
2022-07-29T06:11:11.145Z,50.95
2022-07-29T06:13:39.730Z,50.19
2022-07-29T06:16:08.287Z,50.63
2022-07-29T06:18:36.546Z,50.24
2022-07-29T06:21:10.983Z,49.95
2022-07-29T06:23:41.875Z,49.84
2022-07-29T06:26:11.472Z,50.06
2022-07-29T06:28:39.816Z,50.11
2022-07-29T06:31:08.187Z,50.50
2022-07-29T06:33:38.535Z,50.34
2022-07-29T06:36:07.518Z,51.17
2022-07-29T06:38:42.114Z,51.09
2022-07-29T06:41:16.988Z,50.69
2022-07-29T06:46:23.931Z,50.43
2022-07-29T06:48:53.351Z,50.15
2022-07-29T06:51:23.561Z,50.50
2022-07-29T06:53:59.610Z,50.09
2022-07-29T06:56:39.098Z,50.29
2022-07-29T06:59:09.455Z,50.08
2022-07-29T07:01:38.373Z,49.71
2022-07-29T07:04:09.832Z,49.66
2022-07-29T07:06:38.909Z,49.94
2022-07-29T07:09:07.213Z,49.95
2022-07-29T07:11:37.064Z,49.68
2022-07-29T07:14:05.331Z,50.12
2022-07-29T07:16:34.091Z,50.29
2022-07-29T07:19:02.313Z,49.83
2022-07-29T07:21:31.209Z,49.34
2022-07-29T07:24:00.033Z,48.96
2022-07-29T07:26:28.250Z,49.01
2022-07-29T07:28:57.830Z,48.93
2022-07-29T07:31:26.113Z,49.14
2022-07-29T07:33:54.555Z,49.39
2022-07-29T07:36:23.312Z,49.70
2022-07-29T07:38:51.510Z,48.86
2022-07-29T07:41:19.695Z,48.54
2022-07-29T07:43:47.797Z,48.51
2022-07-29T07:46:17.665Z,48.42
2022-07-29T07:48:46.028Z,48.02
2022-07-29T07:51:14.320Z,48.05
2022-07-29T07:53:42.544Z,48.02
2022-07-29T07:56:12.512Z,48.53
2022-07-29T07:58:41.270Z,48.80
2022-07-29T08:01:13.566Z,48.59
2022-07-29T08:03:43.230Z,48.13
2022-07-29T08:06:11.969Z,47.93
2022-07-29T08:08:40.191Z,48.13
2022-07-29T08:11:09.856Z,46.74
2022-07-29T08:13:39.182Z,46.84
2022-07-29T08:16:16.643Z,46.64
2022-07-29T08:18:47.536Z,46.26
2022-07-29T08:21:16.589Z,46.12
2022-07-29T08:23:59.712Z,46.55
2022-07-29T08:26:29.170Z,46.85
2022-07-29T08:28:57.280Z,46.88
2022-07-29T08:31:25.647Z,46.47
2022-07-29T08:33:57.259Z,46.15
2022-07-29T08:36:25.959Z,45.93
2022-07-29T08:38:54.338Z,45.92
2022-07-29T08:41:22.623Z,45.66
2022-07-29T08:43:52.061Z,45.79
2022-07-29T08:46:21.011Z,46.19
2022-07-29T08:48:51.872Z,45.73
2022-07-29T08:51:22.920Z,45.13
2022-07-29T08:53:52.266Z,44.30
2022-07-29T08:56:21.743Z,44.14
2022-07-29T08:58:52.346Z,44.10
2022-07-29T09:01:35.788Z,43.71
2022-07-29T09:04:06.381Z,43.89
2022-07-29T09:06:39.790Z,43.43
2022-07-29T09:09:10.019Z,43.72
2022-07-29T09:11:38.438Z,44.19
2022-07-29T09:14:06.790Z,44.25
2022-07-29T09:16:53.885Z,44.15
2022-07-29T09:19:30.582Z,44.46
2022-07-29T09:22:03.739Z,44.40
2022-07-29T09:24:42.855Z,44.01
2022-07-29T09:27:22.740Z,43.87
2022-07-29T09:29:59.145Z,43.91
2022-07-29T09:32:27.699Z,43.27
2022-07-29T09:35:16.910Z,43.20
2022-07-29T09:37:46.963Z,42.84
2022-07-29T09:40:17.289Z,42.93
2022-07-29T09:42:46.291Z,43.30
2022-07-29T09:45:14.818Z,43.43
2022-07-29T09:47:46.093Z,43.94
2022-07-29T09:50:14.211Z,43.77
2022-07-29T09:52:51.630Z,43.30
2022-07-29T09:55:20.642Z,43.97
2022-07-29T09:57:49.201Z,43.67
2022-07-29T10:00:18.985Z,44.52
2022-07-29T10:02:48.447Z,44.39
2022-07-29T10:05:22.465Z,44.60
2022-07-29T10:07:57.093Z,44.16
2022-07-29T10:10:29.294Z,44.26
2022-07-29T10:13:03.069Z,44.30
2022-07-29T10:15:38.389Z,44.48
2022-07-29T10:18:06.929Z,44.32
2022-07-29T10:20:35.464Z,44.31
2022-07-29T10:23:05.640Z,44.38
2022-07-29T10:25:34.177Z,43.82
2022-07-29T10:28:02.287Z,43.74
2022-07-29T10:30:30.490Z,43.12
2022-07-29T10:33:13.615Z,42.37
2022-07-29T10:35:59.320Z,42.29
2022-07-29T10:38:45.746Z,41.90
2022-07-29T10:41:51.898Z,42.44
2022-07-29T10:44:23.872Z,43.12
2022-07-29T10:46:53.248Z,42.80
2022-07-29T10:49:25.038Z,42.81
2022-07-29T10:51:59.134Z,42.91
2022-07-29T10:54:44.177Z,42.81
2022-07-29T10:57:17.388Z,42.79
2022-07-29T10:59:46.475Z,43.03
2022-07-29T11:02:50.157Z,42.92
2022-07-29T11:05:20.480Z,42.70
2022-07-29T11:08:26.112Z,43.05
2022-07-29T11:11:43.972Z,42.65
2022-07-29T11:14:26.636Z,42.85
2022-07-29T11:17:06.683Z,43.23
2022-07-29T11:19:36.373Z,42.26
2022-07-29T11:22:05.361Z,42.52
2022-07-29T11:24:35.582Z,41.66
2022-07-29T11:27:13.191Z,40.65
2022-07-29T11:29:55.142Z,41.41
2022-07-29T11:32:25.575Z,41.15
2022-07-29T11:35:38.087Z,40.47
2022-07-29T11:38:28.622Z,39.92
2022-07-29T11:41:22.604Z,40.05
2022-07-29T11:43:53.393Z,40.22
2022-07-29T11:46:50.644Z,39.90
2022-07-29T11:49:31.586Z,40.45
2022-07-29T11:52:02.851Z,40.10
2022-07-29T11:54:34.012Z,40.13
2022-07-29T11:57:22.587Z,40.69
2022-07-29T11:59:50.893Z,40.05
2022-07-29T12:02:37.413Z,39.18
2022-07-29T12:05:10.692Z,38.78
2022-07-29T12:07:41.166Z,38.57
2022-07-29T12:10:19.573Z,39.26
2022-07-29T12:12:57.992Z,37.89
2022-07-29T12:15:46.168Z,37.54
2022-07-29T12:18:19.033Z,37.81
2022-07-29T12:20:48.273Z,38.22
2022-07-29T12:23:17.525Z,37.34
2022-07-29T12:25:49.891Z,38.19
2022-07-29T12:28:26.609Z,38.06
2022-07-29T12:30:55.631Z,38.03
2022-07-29T12:33:27.413Z,38.27
2022-07-29T12:36:07.566Z,38.61
2022-07-29T12:38:37.033Z,39.31
2022-07-29T12:41:05.508Z,39.56
2022-07-29T12:43:34.179Z,39.69
2022-07-29T12:46:14.496Z,39.95
2022-07-29T12:48:45.950Z,40.11
2022-07-29T12:51:15.595Z,41.02
2022-07-29T12:53:44.055Z,41.19
2022-07-29T12:56:41.771Z,41.01
2022-07-29T12:59:15.030Z,40.79
2022-07-29T13:01:43.211Z,41.21
2022-07-29T13:04:12.770Z,40.96
2022-07-29T13:06:46.181Z,41.22
2022-07-29T13:09:20.821Z,41.88
2022-07-29T13:11:50.885Z,41.80
2022-07-29T13:14:33.201Z,42.38
2022-07-29T13:17:06.727Z,42.74
2022-07-29T13:19:38.048Z,42.86
2022-07-29T13:22:06.694Z,43.37
2022-07-29T13:24:34.996Z,44.40
2022-07-29T13:27:05.817Z,44.53
2022-07-29T13:29:34.508Z,45.24
2022-07-29T13:32:02.783Z,46.18
2022-07-29T13:34:31.207Z,46.16
2022-07-29T13:37:00.796Z,46.33
2022-07-29T13:39:28.994Z,46.03
2022-07-29T13:41:57.463Z,46.06
2022-07-29T13:44:25.863Z,46.34
2022-07-29T13:46:54.079Z,47.09
2022-07-29T13:49:23.038Z,47.49
2022-07-29T13:51:51.851Z,48.74
2022-07-29T13:54:21.741Z,48.60
2022-07-29T13:56:49.950Z,50.85
2022-07-29T13:59:18.111Z,51.10
2022-07-29T14:01:46.382Z,52.70
2022-07-29T14:04:14.982Z,53.79
2022-07-29T14:06:43.403Z,56.43
2022-07-29T14:09:11.750Z,58.24
2022-07-29T14:11:41.540Z,60.88
2022-07-29T14:14:11.301Z,64.44
2022-07-29T14:16:43.761Z,66.76
2022-07-29T14:19:17.237Z,69.52
2022-07-29T14:21:46.015Z,72.12
2022-07-29T14:24:17.051Z,74.20
2022-07-29T14:26:51.415Z,73.00
2022-07-29T14:29:19.592Z,73.59
2022-07-29T14:31:47.801Z,73.83
2022-07-29T14:34:17.068Z,74.26
2022-07-29T14:36:45.516Z,76.85
2022-07-29T14:39:13.696Z,77.79
2022-07-29T14:41:41.941Z,79.03
2022-07-29T14:44:11.888Z,78.99
2022-07-29T14:46:40.393Z,80.30
2022-07-29T14:49:09.718Z,81.04
2022-07-29T14:51:38.222Z,81.04
2022-07-29T14:54:08.615Z,79.54
2022-07-29T14:56:37.698Z,81.86
2022-07-29T14:59:16.013Z,81.93
2022-07-29T15:01:44.265Z,79.23
2022-07-29T15:04:12.340Z,78.35
2022-07-29T15:06:40.691Z,79.39
2022-07-29T15:09:08.844Z,80.21
2022-07-29T15:11:37.897Z,77.01
2022-07-29T15:14:07.637Z,76.22
2022-07-29T15:16:39.389Z,75.54
2022-07-29T15:19:12.377Z,76.02
2022-07-29T15:21:47.958Z,75.62
2022-07-29T15:24:16.775Z,76.27
2022-07-29T15:26:45.645Z,76.35
2022-07-29T15:29:14.423Z,75.54
2022-07-29T15:31:44.539Z,74.73
2022-07-29T15:34:12.877Z,74.90
2022-07-29T15:36:56.568Z,77.26
2022-07-29T15:39:24.807Z,78.30
2022-07-29T15:41:53.175Z,78.34
2022-07-29T15:44:22.049Z,80.17
2022-07-29T15:47:07.487Z,79.99
2022-07-29T15:49:46.628Z,79.73
2022-07-29T15:52:24.751Z,78.92
2022-07-29T15:54:55.657Z,79.04
2022-07-29T15:57:24.500Z,75.59
2022-07-29T15:59:53.034Z,75.08
2022-07-29T16:02:22.762Z,74.89
2022-07-29T16:04:51.025Z,75.45
2022-07-29T16:07:19.449Z,75.53
2022-07-29T16:09:52.816Z,74.42
2022-07-29T16:12:21.332Z,73.87
2022-07-29T16:14:51.272Z,74.08
2022-07-29T16:17:20.452Z,73.12
2022-07-29T16:19:50.070Z,73.85
2022-07-29T16:22:18.228Z,73.30
2022-07-29T16:24:46.466Z,72.24
2022-07-29T16:27:14.646Z,70.60
2022-07-29T16:29:43.834Z,67.94
2022-07-29T16:32:12.022Z,65.68
2022-07-29T16:34:41.233Z,65.48
2022-07-29T16:37:10.738Z,66.49
2022-07-29T16:39:39.078Z,67.55
2022-07-29T16:42:07.518Z,66.33
2022-07-29T16:44:36.042Z,67.83
2022-07-29T16:47:05.285Z,68.26
2022-07-29T16:49:33.480Z,69.46
2022-07-29T16:52:01.880Z,69.05
2022-07-29T16:54:31.613Z,66.85
2022-07-29T16:57:01.997Z,64.56
2022-07-29T16:59:30.789Z,63.73
2022-07-29T17:02:02.594Z,63.25
2022-07-29T17:04:31.072Z,63.80
2022-07-29T17:07:00.115Z,65.01
2022-07-29T17:09:29.294Z,64.37
2022-07-29T17:11:58.832Z,63.30
2022-07-29T17:14:32.956Z,62.24
2022-07-29T17:17:03.192Z,63.09
2022-07-29T17:19:33.017Z,62.97
2022-07-29T17:22:09.240Z,62.87
2022-07-29T17:24:38.942Z,63.18
2022-07-29T17:27:10.352Z,63.56
2022-07-29T17:29:39.298Z,64.81
2022-07-29T17:32:08.249Z,66.43
2022-07-29T17:34:36.683Z,66.28
2022-07-29T17:37:05.269Z,66.49
2022-07-29T17:39:35.204Z,68.24
2022-07-29T17:42:03.508Z,68.27
2022-07-29T17:44:36.322Z,68.15
2022-07-29T17:47:05.236Z,69.18
2022-07-29T17:49:36.014Z,70.67
2022-07-29T17:52:05.096Z,70.37
2022-07-29T17:54:35.902Z,69.96
2022-07-29T17:57:04.155Z,70.39
2022-07-29T17:59:33.787Z,70.03
2022-07-29T18:02:02.116Z,70.56
2022-07-29T18:04:31.447Z,70.69
2022-07-29T18:06:59.970Z,70.63
2022-07-29T18:09:28.527Z,70.98
2022-07-29T18:11:56.811Z,71.83
2022-07-29T18:14:25.035Z,71.77
2022-07-29T18:16:54.485Z,71.96
2022-07-29T18:19:22.561Z,72.88
2022-07-29T18:21:54.455Z,73.43
2022-07-29T18:24:25.585Z,73.16
2022-07-29T18:26:54.318Z,73.16
2022-07-29T18:29:22.383Z,73.30
2022-07-29T18:31:50.781Z,74.37
2022-07-29T18:34:20.386Z,73.67
2022-07-29T18:36:48.533Z,73.17
2022-07-29T18:39:21.174Z,73.65
2022-07-29T18:41:51.418Z,73.39
2022-07-29T18:44:22.072Z,74.18
2022-07-29T18:46:51.651Z,74.50
2022-07-29T18:49:24.323Z,74.81
2022-07-29T18:51:53.355Z,74.34
2022-07-29T18:54:21.498Z,74.05
2022-07-29T18:56:50.081Z,75.55
2022-07-29T18:59:20.666Z,74.48
2022-07-29T19:01:49.653Z,73.78
2022-07-29T19:04:18.296Z,74.61
2022-07-29T19:06:47.796Z,75.51
2022-07-29T19:09:18.023Z,74.99
2022-07-29T19:11:46.236Z,75.79
2022-07-29T19:14:14.439Z,75.29
2022-07-29T19:16:42.545Z,75.29
2022-07-29T19:19:10.743Z,75.91
2022-07-29T19:21:39.035Z,76.16
2022-07-29T19:24:13.642Z,76.62
2022-07-29T19:26:46.845Z,76.88
2022-07-29T19:29:15.331Z,77.83
2022-07-29T19:31:43.734Z,78.35
2022-07-29T19:34:12.150Z,78.38
2022-07-29T19:36:40.373Z,78.20
2022-07-29T19:39:11.600Z,78.44
2022-07-29T19:41:39.938Z,76.64
2022-07-29T19:44:08.205Z,75.66
2022-07-29T19:46:36.410Z,75.57
2022-07-29T19:49:06.530Z,76.69
2022-07-29T19:51:35.121Z,76.22
2022-07-29T19:54:03.308Z,76.62
2022-07-29T19:56:32.877Z,76.10
2022-07-29T19:59:02.596Z,75.65
2022-07-29T20:01:35.609Z,76.27
2022-07-29T20:04:03.769Z,76.59
2022-07-29T20:06:31.907Z,76.35
2022-07-29T20:09:00.181Z,76.89
2022-07-29T20:11:29.792Z,77.67
2022-07-29T20:13:59.368Z,78.41
2022-07-29T20:16:27.719Z,78.00
2022-07-29T20:18:55.932Z,78.02
2022-07-29T20:21:25.581Z,79.24
2022-07-29T20:23:53.802Z,81.58
2022-07-29T20:26:21.875Z,83.89
2022-07-29T20:28:50.125Z,85.56
2022-07-29T20:31:19.874Z,86.26
2022-07-29T20:33:48.213Z,86.52
2022-07-29T20:36:16.657Z,86.73
2022-07-29T20:38:44.819Z,87.65
2022-07-29T20:41:13.037Z,89.56
2022-07-29T20:43:41.484Z,89.70
2022-07-29T20:46:10.144Z,91.36
2022-07-29T20:48:40.953Z,91.79
2022-07-29T20:51:09.165Z,93.21
2022-07-29T20:53:38.909Z,93.46
2022-07-29T20:56:07.596Z,92.27
2022-07-29T20:58:36.569Z,93.40
2022-07-29T21:01:05.197Z,93.93
2022-07-29T21:03:33.816Z,92.44
2022-07-29T21:06:03.454Z,93.71
2022-07-29T21:08:32.225Z,92.45
2022-07-29T21:11:00.450Z,93.58
2022-07-29T21:13:28.816Z,93.35
2022-07-29T21:16:06.384Z,92.21
2022-07-29T21:18:38.113Z,93.29
2022-07-29T21:21:09.482Z,92.76
2022-07-29T21:23:37.687Z,93.26
2022-07-29T21:26:11.087Z,93.83
2022-07-29T21:28:43.040Z,93.92
2022-07-29T21:31:12.634Z,92.81
2022-07-29T21:33:42.033Z,92.67
2022-07-29T21:36:47.818Z,93.24
2022-07-29T21:39:07.021Z,93.30
2022-07-29T21:41:35.884Z,93.81
2022-07-29T21:44:04.052Z,93.21
2022-07-29T21:46:32.260Z,92.12
2022-07-29T21:49:00.613Z,93.03
2022-07-29T21:51:30.142Z,92.38
2022-07-29T21:53:58.351Z,92.05
2022-07-29T21:56:27.828Z,92.02
2022-07-29T21:58:56.534Z,91.30
2022-07-29T22:01:27.775Z,90.70
2022-07-29T22:03:55.962Z,92.13
2022-07-29T22:06:24.204Z,91.48
2022-07-29T22:08:55.103Z,92.54
2022-07-29T22:11:23.179Z,92.02
2022-07-29T22:13:51.402Z,92.32
2022-07-29T22:16:19.618Z,90.84
2022-07-29T22:18:48.403Z,90.52
2022-07-29T22:21:17.017Z,92.00
2022-07-29T22:23:45.229Z,90.01
2022-07-29T22:26:14.750Z,90.97
2022-07-29T22:28:42.908Z,91.18
2022-07-29T22:31:12.326Z,90.93
2022-07-29T22:33:40.454Z,90.63
2022-07-29T22:36:09.009Z,89.89
2022-07-29T22:38:37.147Z,90.05
2022-07-29T22:41:05.303Z,91.19
2022-07-29T22:43:34.806Z,92.35
2022-07-29T22:46:03.206Z,94.95
2022-07-29T22:48:31.394Z,94.02
2022-07-29T22:50:59.635Z,93.64
2022-07-29T22:53:27.724Z,93.52
2022-07-29T22:55:55.898Z,92.96
2022-07-29T22:58:24.077Z,91.27
2022-07-29T23:00:54.020Z,91.15
2022-07-29T23:03:22.638Z,91.40
2022-07-29T23:05:51.924Z,90.73
2022-07-29T23:08:20.344Z,89.65
2022-07-29T23:10:48.578Z,91.35
2022-07-29T23:13:16.735Z,89.78
2022-07-29T23:15:44.871Z,90.99
2022-07-29T23:18:14.417Z,90.72
2022-07-29T23:20:43.593Z,91.89
2022-07-29T23:23:11.727Z,91.34
2022-07-29T23:25:39.944Z,92.55
2022-07-29T23:28:11.530Z,91.35
2022-07-29T23:30:41.913Z,90.33
2022-07-29T23:33:10.389Z,93.23
2022-07-29T23:35:39.952Z,94.51
2022-07-29T23:38:09.968Z,93.00
2022-07-29T23:40:38.388Z,91.10
2022-07-29T23:43:08.736Z,90.37
2022-07-29T23:45:42.550Z,88.98
2022-07-29T23:48:12.647Z,88.05
2022-07-29T23:50:43.238Z,86.94
2022-07-29T23:53:12.167Z,86.16
2022-07-29T23:55:40.228Z,85.87
2022-07-29T23:58:08.351Z,85.98
